sensor_id;sensor_type;location;lat;lon;timestamp;pressure;altitude;pressure_sealevel;temperature;humidity
19783;BME280;10051;40.294;-3.754;2022-07-15T00:00:10;94284.63;;;31.96;12.23
19783;BME280;10051;40.294;-3.754;2022-07-15T00:02:37;94208.84;;;31.51;12.75
19783;BME280;10051;40.294;-3.754;2022-07-15T00:05:04;94288.50;;;31.95;12.69
19783;BME280;10051;40.294;-3.754;2022-07-15T00:07:30;94262.03;;;31.76;13.12
19783;BME280;10051;40.294;-3.754;2022-07-15T00:09:56;94272.50;;;31.77;13.40
19783;BME280;10051;40.294;-3.754;2022-07-15T00:12:41;94241.50;;;31.47;13.71
19783;BME280;10051;40.294;-3.754;2022-07-15T00:15:07;94339.56;;;32.08;13.64
19783;BME280;10051;40.294;-3.754;2022-07-15T00:17:33;94274.63;;;31.62;13.60
19783;BME280;10051;40.294;-3.754;2022-07-15T00:19:59;94343.88;;;32.05;13.46
19783;BME280;10051;40.294;-3.754;2022-07-15T00:22:25;94289.81;;;31.59;13.70
19783;BME280;10051;40.294;-3.754;2022-07-15T00:24:51;94309.50;;;31.67;14.03
19783;BME280;10051;40.294;-3.754;2022-07-15T00:27:16;94303.25;;;31.70;13.95
19783;BME280;10051;40.294;-3.754;2022-07-15T00:29:42;94201.53;;;30.93;14.56
19783;BME280;10051;40.294;-3.754;2022-07-15T00:32:08;94316.81;;;31.70;14.21
19783;BME280;10051;40.294;-3.754;2022-07-15T00:34:33;94331.16;;;31.74;14.45
19783;BME280;10051;40.294;-3.754;2022-07-15T00:36:59;94362.47;;;31.83;14.65
19783;BME280;10051;40.294;-3.754;2022-07-15T00:39:24;94297.41;;;31.44;14.73
19783;BME280;10051;40.294;-3.754;2022-07-15T00:41:50;94350.53;;;31.77;15.04
19783;BME280;10051;40.294;-3.754;2022-07-15T00:44:16;94256.69;;;31.13;15.13
19783;BME280;10051;40.294;-3.754;2022-07-15T00:46:41;94326.94;;;31.42;15.60
19783;BME280;10051;40.294;-3.754;2022-07-15T00:49:08;94360.72;;;31.69;15.96
19783;BME280;10051;40.294;-3.754;2022-07-15T00:51:41;94267.41;;;30.97;16.53
19783;BME280;10051;40.294;-3.754;2022-07-15T00:54:09;94360.91;;;31.54;17.61
19783;BME280;10051;40.294;-3.754;2022-07-15T00:56:38;94219.53;;;30.48;18.79
19783;BME280;10051;40.294;-3.754;2022-07-15T00:59:05;94356.47;;;31.40;19.17
19783;BME280;10051;40.294;-3.754;2022-07-15T01:01:32;94322.28;;;31.12;19.64
19783;BME280;10051;40.294;-3.754;2022-07-15T01:03:59;94345.38;;;31.27;19.35
19783;BME280;10051;40.294;-3.754;2022-07-15T01:06:26;94347.31;;;31.27;19.30
19783;BME280;10051;40.294;-3.754;2022-07-15T01:08:53;94216.06;;;30.13;19.75
19783;BME280;10051;40.294;-3.754;2022-07-15T01:11:19;94309.88;;;30.80;20.31
19783;BME280;10051;40.294;-3.754;2022-07-15T01:13:45;94337.25;;;30.93;20.88
19783;BME280;10051;40.294;-3.754;2022-07-15T01:16:10;94339.72;;;30.80;21.24
19783;BME280;10051;40.294;-3.754;2022-07-15T01:18:36;94347.66;;;30.98;21.37
19783;BME280;10051;40.294;-3.754;2022-07-15T01:21:01;94331.91;;;30.85;21.57
19783;BME280;10051;40.294;-3.754;2022-07-15T01:23:27;94320.31;;;30.81;21.48
19783;BME280;10051;40.294;-3.754;2022-07-15T01:25:52;94345.38;;;30.93;21.59
19783;BME280;10051;40.294;-3.754;2022-07-15T01:28:19;94284.56;;;30.55;22.06
19783;BME280;10051;40.294;-3.754;2022-07-15T01:30:45;94324.28;;;30.73;22.51
19783;BME280;10051;40.294;-3.754;2022-07-15T01:33:10;94350.16;;;30.81;22.50
19783;BME280;10051;40.294;-3.754;2022-07-15T01:35:36;94148.81;;;29.59;22.67
19783;BME280;10051;40.294;-3.754;2022-07-15T01:38:02;94318.63;;;30.60;22.81
19783;BME280;10051;40.294;-3.754;2022-07-15T01:40:27;94254.38;;;30.15;22.89
19783;BME280;10051;40.294;-3.754;2022-07-15T01:42:53;94251.72;;;30.08;22.83
19783;BME280;10051;40.294;-3.754;2022-07-15T01:45:18;94309.03;;;30.48;22.51
19783;BME280;10051;40.294;-3.754;2022-07-15T01:47:45;94236.38;;;29.90;22.60
19783;BME280;10051;40.294;-3.754;2022-07-15T01:50:11;94252.59;;;30.01;22.96
19783;BME280;10051;40.294;-3.754;2022-07-15T01:52:37;94231.44;;;29.81;23.17
19783;BME280;10051;40.294;-3.754;2022-07-15T01:55:04;94259.56;;;29.99;23.04
19783;BME280;10051;40.294;-3.754;2022-07-15T01:57:30;94321.59;;;30.31;23.27
19783;BME280;10051;40.294;-3.754;2022-07-15T01:59:55;94228.88;;;29.63;23.30
19783;BME280;10051;40.294;-3.754;2022-07-15T02:02:21;94185.34;;;29.40;23.85
19783;BME280;10051;40.294;-3.754;2022-07-15T02:04:47;94271.97;;;29.96;23.57
19783;BME280;10051;40.294;-3.754;2022-07-15T02:07:12;94239.66;;;29.71;23.79
19783;BME280;10051;40.294;-3.754;2022-07-15T02:09:38;94277.31;;;30.03;23.88
19783;BME280;10051;40.294;-3.754;2022-07-15T02:12:04;94322.00;;;30.30;23.53
19783;BME280;10051;40.294;-3.754;2022-07-15T02:14:30;94322.09;;;30.22;23.06
19783;BME280;10051;40.294;-3.754;2022-07-15T02:16:55;94322.47;;;30.21;22.45
19783;BME280;10051;40.294;-3.754;2022-07-15T02:19:21;94262.03;;;29.78;22.00
19783;BME280;10051;40.294;-3.754;2022-07-15T02:21:46;94194.63;;;29.38;22.07
19783;BME280;10051;40.294;-3.754;2022-07-15T02:24:13;94327.66;;;30.46;21.34
19783;BME280;10051;40.294;-3.754;2022-07-15T02:26:39;94321.16;;;30.36;20.12
19783;BME280;10051;40.294;-3.754;2022-07-15T02:29:04;94322.66;;;30.45;17.88
19783;BME280;10051;40.294;-3.754;2022-07-15T02:31:30;94294.88;;;30.30;18.37
19783;BME280;10051;40.294;-3.754;2022-07-15T02:33:56;94171.13;;;29.28;18.54
19783;BME280;10051;40.294;-3.754;2022-07-15T02:36:22;94215.72;;;29.65;18.23
19783;BME280;10051;40.294;-3.754;2022-07-15T02:38:47;94155.31;;;29.23;18.32
19783;BME280;10051;40.294;-3.754;2022-07-15T02:41:13;94294.00;;;30.02;18.46
19783;BME280;10051;40.294;-3.754;2022-07-15T02:43:38;94257.09;;;29.70;18.76
19783;BME280;10051;40.294;-3.754;2022-07-15T02:46:04;94133.97;;;28.76;18.47
19783;BME280;10051;40.294;-3.754;2022-07-15T02:48:30;94260.53;;;29.74;19.08
19783;BME280;10051;40.294;-3.754;2022-07-15T02:50:57;94270.22;;;29.75;19.04
19783;BME280;10051;40.294;-3.754;2022-07-15T02:53:22;94218.97;;;29.46;19.13
19783;BME280;10051;40.294;-3.754;2022-07-15T02:55:54;94177.44;;;29.11;19.32
19783;BME280;10051;40.294;-3.754;2022-07-15T02:58:19;94219.38;;;29.44;19.17
19783;BME280;10051;40.294;-3.754;2022-07-15T03:00:45;94299.03;;;30.00;19.46
19783;BME280;10051;40.294;-3.754;2022-07-15T03:03:10;94245.13;;;29.63;19.82
19783;BME280;10051;40.294;-3.754;2022-07-15T03:05:36;94248.16;;;29.73;19.27
19783;BME280;10051;40.294;-3.754;2022-07-15T03:08:01;94238.78;;;29.81;19.30
19783;BME280;10051;40.294;-3.754;2022-07-15T03:10:27;94308.00;;;30.35;19.38
19783;BME280;10051;40.294;-3.754;2022-07-15T03:12:52;94186.38;;;29.57;19.69
19783;BME280;10051;40.294;-3.754;2022-07-15T03:15:18;94281.47;;;30.15;19.52
19783;BME280;10051;40.294;-3.754;2022-07-15T03:17:43;94250.94;;;30.11;19.39
19783;BME280;10051;40.294;-3.754;2022-07-15T03:20:10;94242.50;;;30.02;19.36
19783;BME280;10051;40.294;-3.754;2022-07-15T03:22:35;94304.06;;;30.43;19.03
19783;BME280;10051;40.294;-3.754;2022-07-15T03:25:01;94251.69;;;30.11;18.67
19783;BME280;10051;40.294;-3.754;2022-07-15T03:27:27;94236.28;;;30.05;18.56
19783;BME280;10051;40.294;-3.754;2022-07-15T03:29:53;94241.19;;;30.17;18.36
19783;BME280;10051;40.294;-3.754;2022-07-15T03:32:18;94287.69;;;30.50;18.46
19783;BME280;10051;40.294;-3.754;2022-07-15T03:34:46;94307.78;;;30.60;18.44
19783;BME280;10051;40.294;-3.754;2022-07-15T03:37:13;94295.47;;;30.48;18.59
19783;BME280;10051;40.294;-3.754;2022-07-15T03:39:39;94238.50;;;30.14;18.66
19783;BME280;10051;40.294;-3.754;2022-07-15T03:42:05;94319.50;;;30.46;19.02
19783;BME280;10051;40.294;-3.754;2022-07-15T03:44:30;94275.53;;;30.27;18.78
19783;BME280;10051;40.294;-3.754;2022-07-15T03:46:56;94264.78;;;30.20;18.51
19783;BME280;10051;40.294;-3.754;2022-07-15T03:49:21;94260.00;;;30.32;18.50
19783;BME280;10051;40.294;-3.754;2022-07-15T03:51:47;94290.53;;;30.39;17.99
19783;BME280;10051;40.294;-3.754;2022-07-15T03:54:13;94215.59;;;29.80;17.70
19783;BME280;10051;40.294;-3.754;2022-07-15T03:56:39;94271.13;;;30.03;17.85
19783;BME280;10051;40.294;-3.754;2022-07-15T03:59:05;94248.88;;;29.80;18.10
19783;BME280;10051;40.294;-3.754;2022-07-15T04:01:32;94288.00;;;30.21;17.62
19783;BME280;10051;40.294;-3.754;2022-07-15T04:03:58;94284.19;;;30.15;17.35
19783;BME280;10051;40.294;-3.754;2022-07-15T04:06:24;94282.69;;;30.10;17.28
19783;BME280;10051;40.294;-3.754;2022-07-15T04:08:50;94275.84;;;29.91;17.67
19783;BME280;10051;40.294;-3.754;2022-07-15T04:11:16;94219.69;;;29.53;17.42
19783;BME280;10051;40.294;-3.754;2022-07-15T04:13:42;94289.75;;;29.97;17.44
19783;BME280;10051;40.294;-3.754;2022-07-15T04:16:09;94283.88;;;30.06;17.10
19783;BME280;10051;40.294;-3.754;2022-07-15T04:18:35;94261.94;;;29.89;17.03
19783;BME280;10051;40.294;-3.754;2022-07-15T04:21:01;94251.63;;;29.77;17.04
19783;BME280;10051;40.294;-3.754;2022-07-15T04:23:26;94287.41;;;30.03;17.14
19783;BME280;10051;40.294;-3.754;2022-07-15T04:25:52;94212.44;;;29.40;17.64
19783;BME280;10051;40.294;-3.754;2022-07-15T04:28:22;94234.09;;;29.36;17.68
19783;BME280;10051;40.294;-3.754;2022-07-15T04:30:48;94229.03;;;29.42;17.54
19783;BME280;10051;40.294;-3.754;2022-07-15T04:33:14;94279.19;;;29.64;17.67
19783;BME280;10051;40.294;-3.754;2022-07-15T04:35:40;94225.97;;;29.40;17.42
19783;BME280;10051;40.294;-3.754;2022-07-15T04:38:06;94265.22;;;29.66;17.76
19783;BME280;10051;40.294;-3.754;2022-07-15T04:40:32;94293.28;;;29.94;17.47
19783;BME280;10051;40.294;-3.754;2022-07-15T04:42:58;94222.50;;;29.35;17.78
19783;BME280;10051;40.294;-3.754;2022-07-15T04:45:27;94236.38;;;29.45;17.43
19783;BME280;10051;40.294;-3.754;2022-07-15T04:47:53;94241.41;;;29.46;17.58
19783;BME280;10051;40.294;-3.754;2022-07-15T04:50:19;94211.44;;;29.12;17.76
19783;BME280;10051;40.294;-3.754;2022-07-15T04:53:03;94294.59;;;29.71;17.93
19783;BME280;10051;40.294;-3.754;2022-07-15T04:55:29;94252.97;;;29.50;17.76
19783;BME280;10051;40.294;-3.754;2022-07-15T04:57:54;94218.72;;;29.22;17.59
19783;BME280;10051;40.294;-3.754;2022-07-15T05:00:20;94219.09;;;29.24;17.63
19783;BME280;10051;40.294;-3.754;2022-07-15T05:02:45;94205.34;;;29.00;18.18
19783;BME280;10051;40.294;-3.754;2022-07-15T05:05:11;94226.16;;;29.11;18.04
19783;BME280;10051;40.294;-3.754;2022-07-15T05:07:36;94238.47;;;29.15;18.34
19783;BME280;10051;40.294;-3.754;2022-07-15T05:10:04;94245.50;;;29.05;18.78
19783;BME280;10051;40.294;-3.754;2022-07-15T05:12:29;94210.06;;;28.89;18.87
19783;BME280;10051;40.294;-3.754;2022-07-15T05:14:55;94272.41;;;29.31;18.87
19783;BME280;10051;40.294;-3.754;2022-07-15T05:17:20;94293.75;;;29.25;18.97
19783;BME280;10051;40.294;-3.754;2022-07-15T05:19:46;94182.88;;;28.29;19.37
19783;BME280;10051;40.294;-3.754;2022-07-15T05:22:11;94245.28;;;28.67;19.47
19783;BME280;10051;40.294;-3.754;2022-07-15T05:24:37;94257.31;;;28.59;19.43
19783;BME280;10051;40.294;-3.754;2022-07-15T05:27:02;94275.81;;;28.71;19.65
19783;BME280;10051;40.294;-3.754;2022-07-15T05:29:28;94200.22;;;28.31;19.54
19783;BME280;10051;40.294;-3.754;2022-07-15T05:31:54;94267.28;;;28.80;19.68
19783;BME280;10051;40.294;-3.754;2022-07-15T05:34:19;94209.84;;;28.47;19.73
19783;BME280;10051;40.294;-3.754;2022-07-15T05:36:45;94248.44;;;28.58;20.40
19783;BME280;10051;40.294;-3.754;2022-07-15T05:39:10;94251.88;;;28.66;20.26
19783;BME280;10051;40.294;-3.754;2022-07-15T05:41:36;94284.31;;;28.81;20.65
19783;BME280;10051;40.294;-3.754;2022-07-15T05:44:01;94283.81;;;29.00;20.39
19783;BME280;10051;40.294;-3.754;2022-07-15T05:46:27;94272.69;;;28.84;20.76
19783;BME280;10051;40.294;-3.754;2022-07-15T05:48:52;94258.66;;;29.03;19.96
19783;BME280;10051;40.294;-3.754;2022-07-15T05:51:18;94275.47;;;29.36;19.87
19783;BME280;10051;40.294;-3.754;2022-07-15T05:53:44;94279.28;;;29.53;20.40
19783;BME280;10051;40.294;-3.754;2022-07-15T05:56:09;94211.50;;;29.08;20.21
19783;BME280;10051;40.294;-3.754;2022-07-15T05:58:35;94144.50;;;28.56;20.27
19783;BME280;10051;40.294;-3.754;2022-07-15T06:01:01;94285.72;;;29.67;20.00
19783;BME280;10051;40.294;-3.754;2022-07-15T06:03:27;94190.63;;;29.05;19.85
19783;BME280;10051;40.294;-3.754;2022-07-15T06:05:52;94292.31;;;29.70;20.51
19783;BME280;10051;40.294;-3.754;2022-07-15T06:08:18;94228.31;;;29.34;20.85
19783;BME280;10051;40.294;-3.754;2022-07-15T06:10:44;94255.13;;;29.70;20.38
19783;BME280;10051;40.294;-3.754;2022-07-15T06:13:10;94296.28;;;30.07;20.23
19783;BME280;10051;40.294;-3.754;2022-07-15T06:15:35;94147.28;;;29.08;20.38
19783;BME280;10051;40.294;-3.754;2022-07-15T06:18:02;94259.59;;;29.91;20.84
19783;BME280;10051;40.294;-3.754;2022-07-15T06:20:28;94201.47;;;29.58;20.51
19783;BME280;10051;40.294;-3.754;2022-07-15T06:22:54;94297.69;;;30.22;20.35
19783;BME280;10051;40.294;-3.754;2022-07-15T06:25:21;94240.41;;;29.75;20.50
19783;BME280;10051;40.294;-3.754;2022-07-15T06:27:47;94252.78;;;29.76;20.85
19783;BME280;10051;40.294;-3.754;2022-07-15T06:30:13;94278.91;;;29.97;20.31
19783;BME280;10051;40.294;-3.754;2022-07-15T06:32:39;94255.81;;;29.81;20.85
19783;BME280;10051;40.294;-3.754;2022-07-15T06:35:05;94291.25;;;30.05;21.10
19783;BME280;10051;40.294;-3.754;2022-07-15T06:37:31;94142.72;;;29.02;21.16
19783;BME280;10051;40.294;-3.754;2022-07-15T06:39:57;94256.56;;;29.86;21.58
19783;BME280;10051;40.294;-3.754;2022-07-15T06:42:22;94264.69;;;29.82;21.58
19783;BME280;10051;40.294;-3.754;2022-07-15T06:44:48;94294.78;;;30.02;21.70
19783;BME280;10051;40.294;-3.754;2022-07-15T06:47:14;94307.06;;;30.14;21.42
19783;BME280;10051;40.294;-3.754;2022-07-15T06:49:40;94248.13;;;29.76;21.20
19783;BME280;10051;40.294;-3.754;2022-07-15T06:52:05;94177.22;;;29.40;21.56
19783;BME280;10051;40.294;-3.754;2022-07-15T06:54:31;94313.16;;;30.22;20.88
19783;BME280;10051;40.294;-3.754;2022-07-15T06:56:58;94315.44;;;30.27;20.83
19783;BME280;10051;40.294;-3.754;2022-07-15T06:59:24;94290.53;;;29.97;21.15
19783;BME280;10051;40.294;-3.754;2022-07-15T07:01:51;94228.16;;;29.59;20.64
19783;BME280;10051;40.294;-3.754;2022-07-15T07:04:17;94282.88;;;29.85;21.03
19783;BME280;10051;40.294;-3.754;2022-07-15T07:06:43;94175.78;;;29.24;20.66
19783;BME280;10051;40.294;-3.754;2022-07-15T07:09:09;94287.06;;;29.97;21.68
19783;BME280;10051;40.294;-3.754;2022-07-15T07:11:35;94308.91;;;30.24;21.30
19783;BME280;10051;40.294;-3.754;2022-07-15T07:14:00;94243.41;;;29.84;21.26
19783;BME280;10051;40.294;-3.754;2022-07-15T07:16:26;94317.38;;;30.26;21.50
19783;BME280;10051;40.294;-3.754;2022-07-15T07:18:52;94320.47;;;30.29;21.22
19783;BME280;10051;40.294;-3.754;2022-07-15T07:21:18;94252.16;;;30.03;21.38
19783;BME280;10051;40.294;-3.754;2022-07-15T07:23:44;94300.53;;;30.46;21.29
19783;BME280;10051;40.294;-3.754;2022-07-15T07:26:12;94298.94;;;30.49;21.58
19783;BME280;10051;40.294;-3.754;2022-07-15T07:28:37;94264.63;;;30.35;21.96
19783;BME280;10051;40.294;-3.754;2022-07-15T07:31:08;94304.09;;;30.78;20.89
19783;BME280;10051;40.294;-3.754;2022-07-15T07:33:33;94237.78;;;30.44;20.49
19783;BME280;10051;40.294;-3.754;2022-07-15T07:35:59;94313.47;;;31.04;20.89
19783;BME280;10051;40.294;-3.754;2022-07-15T07:38:25;94283.84;;;30.86;21.43
19783;BME280;10051;40.294;-3.754;2022-07-15T07:40:50;94289.44;;;30.71;22.00
19783;BME280;10051;40.294;-3.754;2022-07-15T07:43:16;94197.47;;;30.11;21.55
19783;BME280;10051;40.294;-3.754;2022-07-15T07:45:43;94274.47;;;30.60;21.17
19783;BME280;10051;40.294;-3.754;2022-07-15T07:48:09;94243.53;;;30.50;21.41
19783;BME280;10051;40.294;-3.754;2022-07-15T07:50:34;94170.28;;;30.19;20.88
19783;BME280;10051;40.294;-3.754;2022-07-15T07:53:00;94237.72;;;30.82;21.06
19783;BME280;10051;40.294;-3.754;2022-07-15T07:55:25;94258.59;;;31.20;20.71
19783;BME280;10051;40.294;-3.754;2022-07-15T07:57:55;94244.22;;;31.20;21.04
19783;BME280;10051;40.294;-3.754;2022-07-15T08:00:22;94302.34;;;31.81;20.65
19783;BME280;10051;40.294;-3.754;2022-07-15T08:02:48;94263.28;;;31.67;20.63
19783;BME280;10051;40.294;-3.754;2022-07-15T08:05:15;94239.09;;;31.53;20.72
19783;BME280;10051;40.294;-3.754;2022-07-15T08:07:42;94297.06;;;31.94;20.63
19783;BME280;10051;40.294;-3.754;2022-07-15T08:10:09;94267.44;;;31.52;21.13
19783;BME280;10051;40.294;-3.754;2022-07-15T08:12:36;94294.53;;;31.83;21.70
19783;BME280;10051;40.294;-3.754;2022-07-15T08:15:04;94298.31;;;31.89;21.57
19783;BME280;10051;40.294;-3.754;2022-07-15T08:17:30;94215.94;;;31.44;21.12
19783;BME280;10051;40.294;-3.754;2022-07-15T08:19:56;94268.06;;;31.87;21.38
19783;BME280;10051;40.294;-3.754;2022-07-15T08:22:21;94283.81;;;32.19;20.65
19783;BME280;10051;40.294;-3.754;2022-07-15T08:24:47;94281.59;;;32.14;21.34
19783;BME280;10051;40.294;-3.754;2022-07-15T08:27:15;94288.59;;;32.12;21.30
19783;BME280;10051;40.294;-3.754;2022-07-15T08:29:40;94285.94;;;32.32;21.14
19783;BME280;10051;40.294;-3.754;2022-07-15T08:32:06;94296.00;;;32.35;21.50
19783;BME280;10051;40.294;-3.754;2022-07-15T08:34:31;94300.94;;;32.40;21.34
19783;BME280;10051;40.294;-3.754;2022-07-15T08:36:57;94294.94;;;32.49;20.84
19783;BME280;10051;40.294;-3.754;2022-07-15T08:39:22;94296.34;;;32.57;21.18
19783;BME280;10051;40.294;-3.754;2022-07-15T08:41:51;94307.59;;;32.59;21.27
19783;BME280;10051;40.294;-3.754;2022-07-15T08:44:16;94287.78;;;32.39;21.90
19783;BME280;10051;40.294;-3.754;2022-07-15T08:46:45;94314.88;;;32.66;20.57
19783;BME280;10051;40.294;-3.754;2022-07-15T08:49:16;94233.00;;;32.16;20.73
19783;BME280;10051;40.294;-3.754;2022-07-15T08:51:44;94291.25;;;32.80;21.32
19783;BME280;10051;40.294;-3.754;2022-07-15T08:54:11;94296.28;;;32.81;21.40
19783;BME280;10051;40.294;-3.754;2022-07-15T08:56:37;94278.78;;;32.82;20.80
19783;BME280;10051;40.294;-3.754;2022-07-15T08:59:06;94300.13;;;33.04;20.35
19783;BME280;10051;40.294;-3.754;2022-07-15T09:01:33;94092.13;;;31.67;20.74
19783;BME280;10051;40.294;-3.754;2022-07-15T09:03:59;94095.50;;;31.95;20.94
19783;BME280;10051;40.294;-3.754;2022-07-15T09:08:57;94296.16;;;33.45;19.83
19783;BME280;10051;40.294;-3.754;2022-07-15T09:11:29;94298.13;;;33.45;20.45
19783;BME280;10051;40.294;-3.754;2022-07-15T09:13:59;94305.69;;;33.54;19.84
19783;BME280;10051;40.294;-3.754;2022-07-15T09:16:25;94243.81;;;33.17;19.79
19783;BME280;10051;40.294;-3.754;2022-07-15T09:18:51;94166.13;;;32.76;20.99
19783;BME280;10051;40.294;-3.754;2022-07-15T09:21:22;94288.00;;;33.62;20.14
19783;BME280;10051;40.294;-3.754;2022-07-15T09:23:49;94258.63;;;33.53;20.53
19783;BME280;10051;40.294;-3.754;2022-07-15T09:26:30;94294.72;;;33.90;19.77
19783;BME280;10051;40.294;-3.754;2022-07-15T09:28:58;94309.66;;;34.02;19.89
19783;BME280;10051;40.294;-3.754;2022-07-15T09:31:38;94311.16;;;34.20;18.97
19783;BME280;10051;40.294;-3.754;2022-07-15T09:34:23;94251.59;;;33.85;19.57
19783;BME280;10051;40.294;-3.754;2022-07-15T09:36:51;94301.34;;;34.22;20.01
19783;BME280;10051;40.294;-3.754;2022-07-15T09:39:23;94295.13;;;34.22;19.73
19783;BME280;10051;40.294;-3.754;2022-07-15T09:41:49;94269.75;;;34.08;19.32
19783;BME280;10051;40.294;-3.754;2022-07-15T09:44:19;94240.59;;;33.89;19.76
19783;BME280;10051;40.294;-3.754;2022-07-15T09:54:21;94303.19;;;34.72;18.52
19783;BME280;10051;40.294;-3.754;2022-07-15T09:56:48;94308.44;;;34.79;18.50
19783;BME280;10051;40.294;-3.754;2022-07-15T09:59:15;94296.28;;;34.96;19.21
19783;BME280;10051;40.294;-3.754;2022-07-15T10:01:41;94234.03;;;34.49;18.94
19783;BME280;10051;40.294;-3.754;2022-07-15T10:04:09;94072.66;;;33.49;19.49
19783;BME280;10051;40.294;-3.754;2022-07-15T10:06:36;94168.00;;;34.24;18.60
19783;BME280;10051;40.294;-3.754;2022-07-15T10:09:04;94089.84;;;33.75;19.29
19783;BME280;10051;40.294;-3.754;2022-07-15T10:11:31;94121.81;;;34.04;19.20
19783;BME280;10051;40.294;-3.754;2022-07-15T10:16:52;94287.34;;;35.35;18.33
19783;BME280;10051;40.294;-3.754;2022-07-15T10:28:03;94283.84;;;35.73;18.38
19783;BME280;10051;40.294;-3.754;2022-07-15T10:30:29;94278.47;;;35.82;17.63
19783;BME280;10051;40.294;-3.754;2022-07-15T10:33:17;94286.88;;;35.88;17.85
19783;BME280;10051;40.294;-3.754;2022-07-15T10:35:46;94141.59;;;35.03;17.44
19783;BME280;10051;40.294;-3.754;2022-07-15T10:41:10;94277.41;;;36.28;16.93
19783;BME280;10051;40.294;-3.754;2022-07-15T10:43:53;94203.53;;;35.93;17.63
19783;BME280;10051;40.294;-3.754;2022-07-15T10:46:22;94273.03;;;36.53;16.95
19783;BME280;10051;40.294;-3.754;2022-07-15T10:48:53;94271.19;;;36.50;16.44
19783;BME280;10051;40.294;-3.754;2022-07-15T10:56:34;94251.59;;;36.51;16.88
19783;BME280;10051;40.294;-3.754;2022-07-15T11:01:35;94239.09;;;36.28;17.04
19783;BME280;10051;40.294;-3.754;2022-07-15T11:09:49;94255.78;;;36.65;16.71
19783;BME280;10051;40.294;-3.754;2022-07-15T11:13:02;94193.00;;;36.49;17.21
19783;BME280;10051;40.294;-3.754;2022-07-15T11:15:10;94252.88;;;36.91;17.19
19783;BME280;10051;40.294;-3.754;2022-07-15T11:17:42;94220.88;;;36.79;17.30
19783;BME280;10051;40.294;-3.754;2022-07-15T11:20:10;94240.22;;;37.07;16.48
19783;BME280;10051;40.294;-3.754;2022-07-15T11:22:44;94178.41;;;36.74;16.42
19783;BME280;10051;40.294;-3.754;2022-07-15T11:25:39;94250.94;;;37.32;16.65
19783;BME280;10051;40.294;-3.754;2022-07-15T11:28:14;94249.41;;;37.31;16.87
19783;BME280;10051;40.294;-3.754;2022-07-15T11:33:17;94234.81;;;37.34;15.88
19783;BME280;10051;40.294;-3.754;2022-07-15T11:35:48;94228.44;;;37.38;16.21
19783;BME280;10051;40.294;-3.754;2022-07-15T11:38:15;94240.66;;;37.46;15.89
19783;BME280;10051;40.294;-3.754;2022-07-15T11:40:51;94247.72;;;37.56;15.76
19783;BME280;10051;40.294;-3.754;2022-07-15T11:43:36;94238.72;;;37.56;15.87
19783;BME280;10051;40.294;-3.754;2022-07-15T11:46:20;94227.63;;;37.59;15.26
19783;BME280;10051;40.294;-3.754;2022-07-15T11:48:48;94225.00;;;37.46;15.45
19783;BME280;10051;40.294;-3.754;2022-07-15T11:51:15;94237.03;;;37.49;15.31
19783;BME280;10051;40.294;-3.754;2022-07-15T11:53:45;94057.22;;;36.20;15.48
19783;BME280;10051;40.294;-3.754;2022-07-15T11:56:14;94251.34;;;37.53;15.75
19783;BME280;10051;40.294;-3.754;2022-07-15T11:58:43;94155.25;;;36.97;15.10
19783;BME280;10051;40.294;-3.754;2022-07-15T12:01:14;94141.66;;;36.94;15.65
19783;BME280;10051;40.294;-3.754;2022-07-15T12:03:46;94127.56;;;37.04;14.69
19783;BME280;10051;40.294;-3.754;2022-07-15T12:06:15;94185.16;;;37.32;15.24
19783;BME280;10051;40.294;-3.754;2022-07-15T12:19:26;94206.31;;;37.91;14.61
19783;BME280;10051;40.294;-3.754;2022-07-15T12:21:57;94219.44;;;37.97;14.96
19783;BME280;10051;40.294;-3.754;2022-07-15T12:24:25;94162.41;;;37.63;15.84
19783;BME280;10051;40.294;-3.754;2022-07-15T12:29:22;94206.34;;;38.10;15.32
19783;BME280;10051;40.294;-3.754;2022-07-15T12:31:53;94024.94;;;36.87;14.67
19783;BME280;10051;40.294;-3.754;2022-07-15T12:34:19;94112.41;;;37.41;15.04
19783;BME280;10051;40.294;-3.754;2022-07-15T12:36:55;94197.16;;;37.85;14.89
19783;BME280;10051;40.294;-3.754;2022-07-15T12:39:21;94199.47;;;37.87;14.95
19783;BME280;10051;40.294;-3.754;2022-07-15T12:42:02;94184.97;;;37.86;14.25
19783;BME280;10051;40.294;-3.754;2022-07-15T12:44:29;94135.59;;;37.58;14.63
19783;BME280;10051;40.294;-3.754;2022-07-15T12:49:41;94186.53;;;38.15;14.64
19783;BME280;10051;40.294;-3.754;2022-07-15T12:52:34;94187.75;;;38.05;14.45
19783;BME280;10051;40.294;-3.754;2022-07-15T12:55:16;94197.19;;;38.04;14.71
19783;BME280;10051;40.294;-3.754;2022-07-15T12:57:42;94136.19;;;37.81;14.36
19783;BME280;10051;40.294;-3.754;2022-07-15T13:00:15;94187.16;;;38.19;14.71
19783;BME280;10051;40.294;-3.754;2022-07-15T13:03:00;94190.47;;;38.23;14.26
19783;BME280;10051;40.294;-3.754;2022-07-15T13:05:33;94168.69;;;38.01;14.47
19783;BME280;10051;40.294;-3.754;2022-07-15T13:07:59;94106.97;;;37.69;14.26
19783;BME280;10051;40.294;-3.754;2022-07-15T13:10:24;94170.94;;;38.21;14.24
19783;BME280;10051;40.294;-3.754;2022-07-15T13:12:51;94162.44;;;38.19;14.41
19783;BME280;10051;40.294;-3.754;2022-07-15T13:15:17;94109.25;;;37.89;14.21
19783;BME280;10051;40.294;-3.754;2022-07-15T13:17:42;94176.91;;;38.38;14.15
19783;BME280;10051;40.294;-3.754;2022-07-15T13:20:09;94175.22;;;38.32;14.14
19783;BME280;10051;40.294;-3.754;2022-07-15T13:22:38;94166.53;;;38.33;14.06
19783;BME280;10051;40.294;-3.754;2022-07-15T13:25:04;94153.25;;;38.22;13.85
19783;BME280;10051;40.294;-3.754;2022-07-15T13:27:29;94095.69;;;37.94;14.25
19783;BME280;10051;40.294;-3.754;2022-07-15T13:29:55;94078.63;;;38.00;13.71
19783;BME280;10051;40.294;-3.754;2022-07-15T13:32:20;94162.09;;;38.55;14.20
19783;BME280;10051;40.294;-3.754;2022-07-15T13:34:45;94102.97;;;38.16;14.45
19783;BME280;10051;40.294;-3.754;2022-07-15T13:37:11;94037.63;;;37.87;13.20
19783;BME280;10051;40.294;-3.754;2022-07-15T13:39:36;94120.94;;;38.45;13.35
19783;BME280;10051;40.294;-3.754;2022-07-15T13:42:03;94123.94;;;38.57;13.42
19783;BME280;10051;40.294;-3.754;2022-07-15T13:44:28;94100.47;;;38.46;13.32
19783;BME280;10051;40.294;-3.754;2022-07-15T13:46:54;94136.75;;;38.60;12.54